UAE31AH OMDB-HECA
Flight info
| Callsign | UAE31AH |
|---|---|
| Flight time | 4h 8m |
| Altitude | 36000 |
| Route | ANVIX R401 GIDIS G783 ASNUR L883 KITUB Y511 ELONU G799 PMA V10 PEGUR Z712 WEJ L677 CVO |
| Aircraft | B77W/H-SDE1E2E3FGHIJ2J3J4J5M1RWXY/LB1D1 |
Departure
| Time | 2026-04-25 18:53 |
|---|---|
| Airport | Dubai International Airport (OMDB) |
Arrival
| Time | 2026-04-25 23:02 |
|---|---|
| Airport | Cairo International Airport (HECA) |
| Time | Latitude | Longitude | Altitude | Speed | Heading |
|---|---|---|---|---|---|
| 2026-04-25 18:11 | 25.24970 | 55.36154 | 27 ft | 0 kts | 212° |
| 2026-04-25 18:37 | 25.24976 | 55.36158 | 27 ft | 3 kts | 212° |
| 2026-04-25 18:37 | 25.24992 | 55.36169 | 26 ft | 3 kts | 212° |
| 2026-04-25 18:38 | 25.25004 | 55.36178 | 26 ft | 0 kts | 202° |
| 2026-04-25 18:38 | 25.25017 | 55.36182 | 26 ft | 2 kts | 175° |
| 2026-04-25 18:38 | 25.25030 | 55.36180 | 25 ft | 3 kts | 189° |
| 2026-04-25 18:39 | 25.25049 | 55.36189 | 25 ft | 3 kts | 228° |
| 2026-04-25 18:39 | 25.25059 | 55.36205 | 25 ft | 3 kts | 263° |
| 2026-04-25 18:39 | 25.25058 | 55.36223 | 23 ft | 3 kts | 297° |
| 2026-04-25 18:39 | 25.25054 | 55.36230 | 25 ft | 0 kts | 303° |
| 2026-04-25 18:43 | 25.25065 | 55.36210 | 25 ft | 14 kts | 298° |
| 2026-04-25 18:44 | 25.25106 | 55.36111 | 27 ft | 8 kts | 292° |
| 2026-04-25 18:44 | 25.25128 | 55.36053 | 27 ft | 8 kts | 295° |
| 2026-04-25 18:44 | 25.25150 | 55.36008 | 27 ft | 0 kts | 302° |
| 2026-04-25 18:44 | 25.25151 | 55.36007 | 27 ft | 0 kts | 302° |
| 2026-04-25 18:45 | 25.25151 | 55.36005 | 27 ft | 0 kts | 302° |
| 2026-04-25 18:45 | 25.25152 | 55.36004 | 27 ft | 0 kts | 302° |
| 2026-04-25 18:45 | 25.25186 | 55.35945 | 27 ft | 19 kts | 302° |
| 2026-04-25 18:45 | 25.25259 | 55.35816 | 27 ft | 20 kts | 301° |
| 2026-04-25 18:46 | 25.25329 | 55.35684 | 27 ft | 20 kts | 301° |
| 2026-04-25 18:46 | 25.25402 | 55.35553 | 27 ft | 20 kts | 302° |
| 2026-04-25 18:46 | 25.25476 | 55.35423 | 27 ft | 20 kts | 302° |
| 2026-04-25 18:46 | 25.25547 | 55.35294 | 27 ft | 20 kts | 301° |
| 2026-04-25 18:47 | 25.25625 | 55.35169 | 27 ft | 20 kts | 323° |
| 2026-04-25 18:47 | 25.25718 | 55.35188 | 27 ft | 16 kts | 36° |
| 2026-04-25 18:47 | 25.25812 | 55.35251 | 27 ft | 16 kts | 30° |
| 2026-04-25 18:47 | 25.25906 | 55.35312 | 27 ft | 16 kts | 33° |
| 2026-04-25 18:48 | 25.25980 | 55.35399 | 27 ft | 16 kts | 65° |
| 2026-04-25 18:48 | 25.25985 | 55.35517 | 27 ft | 16 kts | 105° |
| 2026-04-25 18:48 | 25.25936 | 55.35627 | 27 ft | 20 kts | 120° |
| 2026-04-25 18:48 | 25.25832 | 55.35814 | 27 ft | 32 kts | 122° |
| 2026-04-25 18:49 | 25.25718 | 55.36014 | 27 ft | 30 kts | 122° |
| 2026-04-25 18:49 | 25.25610 | 55.36213 | 27 ft | 30 kts | 120° |
| 2026-04-25 18:49 | 25.25502 | 55.36410 | 27 ft | 30 kts | 122° |
| 2026-04-25 18:49 | 25.25392 | 55.36605 | 27 ft | 30 kts | 122° |
| 2026-04-25 18:50 | 25.25289 | 55.36789 | 27 ft | 29 kts | 122° |
| 2026-04-25 18:50 | 25.25178 | 55.36994 | 27 ft | 32 kts | 121° |
| 2026-04-25 18:50 | 25.25064 | 55.37194 | 27 ft | 30 kts | 120° |
| 2026-04-25 18:50 | 25.24961 | 55.37386 | 27 ft | 25 kts | 122° |
| 2026-04-25 18:51 | 25.24878 | 55.37531 | 27 ft | 18 kts | 122° |
| 2026-04-25 18:51 | 25.24856 | 55.37570 | 27 ft | 18 kts | 122° |
| 2026-04-25 18:51 | 25.24743 | 55.37777 | 27 ft | 7 kts | 121° |
| 2026-04-25 18:51 | 25.24717 | 55.37825 | 27 ft | 8 kts | 121° |
| 2026-04-25 18:52 | 25.24679 | 55.37920 | 27 ft | 15 kts | 93° |
| 2026-04-25 18:52 | 25.24737 | 55.38000 | 27 ft | 14 kts | 33° |
| 2026-04-25 18:52 | 25.24821 | 55.37989 | 27 ft | 14 kts | 309° |
| 2026-04-25 18:52 | 25.24875 | 55.37896 | 27 ft | 19 kts | 302° |
| 2026-04-25 18:53 | 25.25004 | 55.37665 | 27 ft | 63 kts | 301° |
| 2026-04-25 18:53 | 25.25428 | 55.36913 | 27 ft | 167 kts | 303° |
| 2026-04-25 18:53 | 25.26147 | 55.35674 | 730 ft | 201 kts | 303° |
| 2026-04-25 18:53 | 25.26840 | 55.34426 | 2307 ft | 184 kts | 301° |
| 2026-04-25 18:54 | 25.28155 | 55.32026 | 3756 ft | 186 kts | 302° |
| 2026-04-25 18:54 | 25.28860 | 55.30750 | 3976 ft | 202 kts | 300° |
| 2026-04-25 18:54 | 25.29220 | 55.29272 | 4211 ft | 202 kts | 268° |
| 2026-04-25 18:55 | 25.28874 | 55.27782 | 4819 ft | 206 kts | 250° |
| 2026-04-25 18:55 | 25.28268 | 55.26325 | 5417 ft | 209 kts | 247° |
| 2026-04-25 18:55 | 25.27632 | 55.24861 | 6020 ft | 212 kts | 247° |
| 2026-04-25 18:55 | 25.26991 | 55.23378 | 6601 ft | 215 kts | 248° |
| 2026-04-25 18:56 | 25.26568 | 55.22393 | 6997 ft | 215 kts | 247° |
| 2026-04-25 18:56 | 25.25921 | 55.20888 | 7506 ft | 224 kts | 247° |
| 2026-04-25 18:56 | 25.25221 | 55.19247 | 7746 ft | 245 kts | 247° |
| 2026-04-25 18:56 | 25.24317 | 55.17633 | 8232 ft | 254 kts | 223° |
| 2026-04-25 18:57 | 25.22745 | 55.16728 | 8798 ft | 263 kts | 189° |
| 2026-04-25 18:57 | 25.20894 | 55.16723 | 9359 ft | 270 kts | 176° |
| 2026-04-25 18:57 | 25.19100 | 55.17239 | 10055 ft | 272 kts | 149° |
| 2026-04-25 18:57 | 25.18097 | 55.18126 | 10485 ft | 280 kts | 131° |
| 2026-04-25 18:58 | 25.16736 | 55.20661 | 11008 ft | 299 kts | 118° |
| 2026-04-25 18:58 | 25.14772 | 55.24831 | 12409 ft | 310 kts | 120° |
| 2026-04-25 18:58 | 25.13765 | 55.26943 | 13201 ft | 313 kts | 120° |
| 2026-04-25 18:59 | 25.11692 | 55.31267 | 14627 ft | 322 kts | 120° |
| 2026-04-25 18:59 | 25.09662 | 55.35755 | 16089 ft | 330 kts | 116° |
| 2026-04-25 19:00 | 25.07777 | 55.40418 | 17504 ft | 339 kts | 117° |
| 2026-04-25 19:00 | 25.06810 | 55.42818 | 18160 ft | 347 kts | 116° |
| 2026-04-25 19:01 | 25.04607 | 55.47886 | 18441 ft | 382 kts | 133° |
| 2026-04-25 19:01 | 25.02521 | 55.49751 | 18562 ft | 394 kts | 157° |
| 2026-04-25 19:01 | 24.99882 | 55.50570 | 18704 ft | 405 kts | 176° |
| 2026-04-25 19:01 | 24.97030 | 55.50879 | 18905 ft | 418 kts | 176° |
| 2026-04-25 19:02 | 24.91141 | 55.51632 | 19839 ft | 431 kts | 175° |
| 2026-04-25 19:02 | 24.88148 | 55.52040 | 20453 ft | 434 kts | 175° |
| 2026-04-25 19:02 | 24.85139 | 55.52457 | 21065 ft | 437 kts | 175° |
| 2026-04-25 19:03 | 24.80067 | 55.53161 | 21888 ft | 447 kts | 175° |
| 2026-04-25 19:03 | 24.75958 | 55.53731 | 22629 ft | 451 kts | 175° |
| 2026-04-25 19:03 | 24.72823 | 55.54165 | 23197 ft | 455 kts | 175° |
| 2026-04-25 19:04 | 24.66492 | 55.55043 | 24150 ft | 462 kts | 175° |
| 2026-04-25 19:04 | 24.63295 | 55.55485 | 24615 ft | 464 kts | 175° |
| 2026-04-25 19:05 | 24.56836 | 55.56379 | 25540 ft | 470 kts | 176° |
| 2026-04-25 19:05 | 24.50350 | 55.57275 | 26453 ft | 474 kts | 176° |
| 2026-04-25 19:05 | 24.47076 | 55.57727 | 26908 ft | 476 kts | 176° |
| 2026-04-25 19:06 | 24.43765 | 55.58184 | 27321 ft | 479 kts | 176° |
| 2026-04-25 19:06 | 24.37099 | 55.59103 | 28087 ft | 486 kts | 176° |
| 2026-04-25 19:06 | 24.33738 | 55.59566 | 28469 ft | 488 kts | 176° |
| 2026-04-25 19:07 | 24.26948 | 55.60062 | 29140 ft | 489 kts | 186° |
| 2026-04-25 19:07 | 24.23560 | 55.59725 | 29413 ft | 490 kts | 191° |
| 2026-04-25 19:08 | 24.16934 | 55.58033 | 30051 ft | 489 kts | 199° |
| 2026-04-25 19:08 | 24.13703 | 55.57016 | 30400 ft | 488 kts | 199° |
| 2026-04-25 19:09 | 24.03912 | 55.54032 | 31577 ft | 485 kts | 199° |
| 2026-04-25 19:09 | 24.01753 | 55.53389 | 31809 ft | 485 kts | 199° |
| 2026-04-25 19:09 | 23.94173 | 55.51138 | 32529 ft | 486 kts | 199° |
| 2026-04-25 19:10 | 23.90907 | 55.50168 | 32829 ft | 486 kts | 199° |
| 2026-04-25 19:10 | 23.87676 | 55.49210 | 33171 ft | 485 kts | 199° |
| 2026-04-25 19:10 | 23.84414 | 55.48242 | 33534 ft | 485 kts | 199° |
| 2026-04-25 19:10 | 23.81162 | 55.47277 | 33875 ft | 484 kts | 199° |
| 2026-04-25 19:11 | 23.77901 | 55.46309 | 34147 ft | 484 kts | 199° |
| 2026-04-25 19:11 | 23.74648 | 55.45343 | 34361 ft | 486 kts | 199° |
| 2026-04-25 19:11 | 23.71419 | 55.44384 | 34535 ft | 487 kts | 199° |
| 2026-04-25 19:11 | 23.68129 | 55.43407 | 34721 ft | 489 kts | 199° |
| 2026-04-25 19:12 | 23.64840 | 55.42432 | 34924 ft | 490 kts | 199° |
| 2026-04-25 19:12 | 23.61548 | 55.41457 | 35150 ft | 490 kts | 199° |
| 2026-04-25 19:12 | 23.58258 | 55.40484 | 35359 ft | 491 kts | 200° |
| 2026-04-25 19:12 | 23.54944 | 55.39503 | 35557 ft | 492 kts | 200° |
| 2026-04-25 19:13 | 23.51634 | 55.38524 | 35761 ft | 493 kts | 200° |
| 2026-04-25 19:13 | 23.45030 | 55.36570 | 35902 ft | 498 kts | 200° |
| 2026-04-25 19:14 | 23.38339 | 55.34594 | 35920 ft | 496 kts | 200° |
| 2026-04-25 19:14 | 23.31674 | 55.32628 | 35939 ft | 494 kts | 200° |
| 2026-04-25 19:15 | 23.25036 | 55.30670 | 35927 ft | 493 kts | 200° |
| 2026-04-25 19:15 | 23.18406 | 55.28715 | 35932 ft | 493 kts | 200° |
| 2026-04-25 19:16 | 23.11783 | 55.26765 | 35914 ft | 494 kts | 200° |
| 2026-04-25 19:16 | 23.05326 | 55.24400 | 35911 ft | 480 kts | 217° |
| 2026-04-25 19:16 | 23.02749 | 55.22185 | 35932 ft | 469 kts | 231° |
| 2026-04-25 19:17 | 23.00774 | 55.19460 | 35928 ft | 462 kts | 244° |
| 2026-04-25 19:17 | 22.98052 | 55.13230 | 35918 ft | 460 kts | 250° |
| 2026-04-25 19:18 | 22.95379 | 55.06870 | 35924 ft | 465 kts | 249° |
| 2026-04-25 19:18 | 22.92630 | 55.00490 | 35917 ft | 468 kts | 249° |
| 2026-04-25 19:19 | 22.89905 | 54.94252 | 35907 ft | 468 kts | 249° |
| 2026-04-25 19:19 | 22.87131 | 54.87926 | 35897 ft | 466 kts | 249° |
| 2026-04-25 19:20 | 22.84353 | 54.81592 | 35899 ft | 463 kts | 249° |
| 2026-04-25 19:20 | 22.81597 | 54.75310 | 35900 ft | 461 kts | 249° |
| 2026-04-25 19:21 | 22.78846 | 54.69048 | 35902 ft | 459 kts | 249° |
| 2026-04-25 19:21 | 22.74720 | 54.59666 | 35904 ft | 459 kts | 249° |
| 2026-04-25 19:22 | 22.71986 | 54.53460 | 35891 ft | 460 kts | 249° |
| 2026-04-25 19:23 | 22.67845 | 54.44073 | 35907 ft | 461 kts | 249° |
| 2026-04-25 19:23 | 22.63698 | 54.34669 | 35896 ft | 462 kts | 249° |
| 2026-04-25 19:24 | 22.60920 | 54.28381 | 35905 ft | 463 kts | 249° |
| 2026-04-25 19:25 | 22.55371 | 54.15851 | 35904 ft | 462 kts | 249° |
| 2026-04-25 19:25 | 22.52590 | 54.09583 | 35901 ft | 461 kts | 249° |
| 2026-04-25 19:26 | 22.49815 | 54.03335 | 35895 ft | 460 kts | 249° |
| 2026-04-25 19:26 | 22.47129 | 53.97293 | 35903 ft | 459 kts | 248° |
| 2026-04-25 19:27 | 22.44829 | 53.92124 | 35906 ft | 458 kts | 248° |
| 2026-04-25 19:27 | 22.41603 | 53.84885 | 35907 ft | 457 kts | 248° |
| 2026-04-25 19:28 | 22.38841 | 53.78695 | 35910 ft | 456 kts | 248° |
| 2026-04-25 19:28 | 22.36084 | 53.72525 | 35900 ft | 456 kts | 248° |
| 2026-04-25 19:29 | 22.33333 | 53.66373 | 35906 ft | 457 kts | 248° |
| 2026-04-25 19:29 | 22.30560 | 53.60182 | 35907 ft | 458 kts | 248° |
| 2026-04-25 19:30 | 22.27772 | 53.53968 | 35909 ft | 460 kts | 248° |
| 2026-04-25 19:30 | 22.24978 | 53.47747 | 35909 ft | 460 kts | 248° |
| 2026-04-25 19:31 | 22.22177 | 53.41516 | 35898 ft | 461 kts | 248° |
| 2026-04-25 19:31 | 22.19393 | 53.35331 | 35908 ft | 461 kts | 248° |
| 2026-04-25 19:32 | 22.16583 | 53.29096 | 35906 ft | 461 kts | 248° |
| 2026-04-25 19:32 | 22.14708 | 53.24938 | 35898 ft | 461 kts | 248° |
| 2026-04-25 19:33 | 22.10967 | 53.16656 | 35903 ft | 461 kts | 248° |
| 2026-04-25 19:33 | 22.08157 | 53.10442 | 35907 ft | 461 kts | 248° |
| 2026-04-25 19:34 | 22.05358 | 53.04261 | 35905 ft | 462 kts | 248° |
| 2026-04-25 19:34 | 22.02594 | 52.98166 | 35903 ft | 462 kts | 249° |
| 2026-04-25 19:35 | 21.99764 | 52.91931 | 35899 ft | 463 kts | 249° |
| 2026-04-25 19:35 | 21.96950 | 52.85737 | 35903 ft | 464 kts | 249° |
| 2026-04-25 19:36 | 21.94108 | 52.79490 | 35903 ft | 464 kts | 249° |
| 2026-04-25 19:36 | 21.91254 | 52.73225 | 35903 ft | 465 kts | 249° |
| 2026-04-25 19:37 | 21.88401 | 52.66974 | 35906 ft | 465 kts | 249° |
| 2026-04-25 19:37 | 21.85563 | 52.60768 | 35904 ft | 465 kts | 249° |
| 2026-04-25 19:38 | 21.82702 | 52.54517 | 35904 ft | 464 kts | 249° |
| 2026-04-25 19:38 | 21.79839 | 52.48269 | 35904 ft | 464 kts | 249° |
| 2026-04-25 19:39 | 21.77008 | 52.42094 | 35901 ft | 463 kts | 249° |
| 2026-04-25 19:39 | 21.74147 | 52.35868 | 35904 ft | 463 kts | 248° |
| 2026-04-25 19:40 | 21.71284 | 52.29664 | 35901 ft | 463 kts | 248° |
| 2026-04-25 19:40 | 21.68414 | 52.23452 | 35902 ft | 462 kts | 248° |
| 2026-04-25 19:41 | 21.65550 | 52.17255 | 35911 ft | 462 kts | 248° |
| 2026-04-25 19:41 | 21.63654 | 52.13157 | 35910 ft | 462 kts | 248° |
| 2026-04-25 19:42 | 21.59833 | 52.04906 | 35904 ft | 463 kts | 248° |
| 2026-04-25 19:42 | 21.57046 | 51.98896 | 35907 ft | 462 kts | 248° |
| 2026-04-25 19:43 | 21.54173 | 51.92708 | 35906 ft | 462 kts | 248° |
| 2026-04-25 19:43 | 21.51783 | 51.87566 | 35907 ft | 462 kts | 248° |
| 2026-04-25 19:44 | 21.48911 | 51.81391 | 35909 ft | 461 kts | 248° |
| 2026-04-25 19:44 | 21.46264 | 51.75154 | 35905 ft | 454 kts | 257° |
| 2026-04-25 19:45 | 21.45069 | 51.68602 | 35919 ft | 447 kts | 268° |
| 2026-04-25 19:45 | 21.45139 | 51.61960 | 35919 ft | 444 kts | 275° |
| 2026-04-25 19:46 | 21.45453 | 51.55325 | 35906 ft | 445 kts | 275° |
| 2026-04-25 19:46 | 21.45723 | 51.48669 | 35916 ft | 446 kts | 275° |
| 2026-04-25 19:47 | 21.45963 | 51.42051 | 35916 ft | 447 kts | 275° |
| 2026-04-25 19:47 | 21.46201 | 51.35370 | 35912 ft | 447 kts | 275° |
| 2026-04-25 19:48 | 21.46439 | 51.28690 | 35916 ft | 448 kts | 275° |
| 2026-04-25 19:48 | 21.46673 | 51.21998 | 35916 ft | 448 kts | 275° |
| 2026-04-25 19:49 | 21.46865 | 51.16436 | 35913 ft | 448 kts | 275° |
| 2026-04-25 19:49 | 21.47131 | 51.08667 | 35914 ft | 447 kts | 275° |
| 2026-04-25 19:50 | 21.47461 | 50.98881 | 35914 ft | 447 kts | 275° |
| 2026-04-25 19:51 | 21.47683 | 50.92201 | 35921 ft | 446 kts | 274° |
| 2026-04-25 19:51 | 21.47902 | 50.85544 | 35915 ft | 446 kts | 274° |
| 2026-04-25 19:52 | 21.48116 | 50.78922 | 35910 ft | 445 kts | 274° |
| 2026-04-25 19:52 | 21.48329 | 50.72282 | 35915 ft | 445 kts | 274° |
| 2026-04-25 19:53 | 21.48540 | 50.65624 | 35914 ft | 445 kts | 274° |
| 2026-04-25 19:53 | 21.48746 | 50.59029 | 35915 ft | 444 kts | 274° |
| 2026-04-25 19:54 | 21.48951 | 50.52399 | 35913 ft | 444 kts | 274° |
| 2026-04-25 19:54 | 21.49153 | 50.45770 | 35911 ft | 444 kts | 274° |
| 2026-04-25 19:55 | 21.49352 | 50.39137 | 35912 ft | 444 kts | 274° |
| 2026-04-25 19:55 | 21.49549 | 50.32500 | 35917 ft | 444 kts | 274° |
| 2026-04-25 19:56 | 21.49743 | 50.25899 | 35909 ft | 444 kts | 274° |
| 2026-04-25 19:56 | 21.49935 | 50.19263 | 35910 ft | 445 kts | 274° |
| 2026-04-25 19:57 | 21.50176 | 50.12628 | 35909 ft | 443 kts | 278° |
| 2026-04-25 19:57 | 21.51298 | 50.06133 | 35919 ft | 441 kts | 285° |
| 2026-04-25 19:58 | 21.53214 | 49.99938 | 35917 ft | 440 kts | 292° |
| 2026-04-25 19:58 | 21.55468 | 49.93950 | 35912 ft | 440 kts | 292° |
| 2026-04-25 19:59 | 21.57759 | 49.87896 | 35909 ft | 440 kts | 292° |
| 2026-04-25 19:59 | 21.60052 | 49.81765 | 35908 ft | 440 kts | 292° |
| 2026-04-25 20:00 | 21.62309 | 49.75679 | 35911 ft | 440 kts | 292° |
| 2026-04-25 20:00 | 21.64573 | 49.69559 | 35919 ft | 440 kts | 292° |
| 2026-04-25 20:01 | 21.67947 | 49.60421 | 35908 ft | 440 kts | 292° |
| 2026-04-25 20:01 | 21.70204 | 49.54302 | 35912 ft | 439 kts | 291° |
| 2026-04-25 20:02 | 21.72455 | 49.48190 | 35908 ft | 439 kts | 291° |
| 2026-04-25 20:02 | 21.74690 | 49.42113 | 35909 ft | 439 kts | 291° |
| 2026-04-25 20:03 | 21.76934 | 49.36004 | 35905 ft | 439 kts | 291° |
| 2026-04-25 20:03 | 21.79176 | 49.29892 | 35912 ft | 439 kts | 291° |
| 2026-04-25 20:04 | 21.81415 | 49.23783 | 35911 ft | 438 kts | 291° |
| 2026-04-25 20:04 | 21.83650 | 49.17673 | 35910 ft | 438 kts | 291° |
| 2026-04-25 20:05 | 21.85878 | 49.11575 | 35908 ft | 438 kts | 291° |
| 2026-04-25 20:05 | 21.88103 | 49.05477 | 35908 ft | 438 kts | 291° |
| 2026-04-25 20:06 | 21.90250 | 48.99587 | 35912 ft | 437 kts | 291° |
| 2026-04-25 20:06 | 21.92469 | 48.93490 | 35918 ft | 437 kts | 291° |
| 2026-04-25 20:07 | 21.94684 | 48.87396 | 35909 ft | 437 kts | 291° |
| 2026-04-25 20:07 | 21.96901 | 48.81291 | 35911 ft | 436 kts | 291° |
| 2026-04-25 20:08 | 21.99110 | 48.75196 | 35912 ft | 436 kts | 291° |
| 2026-04-25 20:08 | 22.01298 | 48.69151 | 35909 ft | 436 kts | 291° |
| 2026-04-25 20:09 | 22.03499 | 48.63066 | 35907 ft | 435 kts | 291° |
| 2026-04-25 20:09 | 22.05695 | 48.56981 | 35907 ft | 435 kts | 291° |
| 2026-04-25 20:10 | 22.07893 | 48.50886 | 35908 ft | 435 kts | 291° |
| 2026-04-25 20:10 | 22.10074 | 48.44830 | 35904 ft | 435 kts | 291° |
| 2026-04-25 20:11 | 22.12262 | 48.38746 | 35902 ft | 435 kts | 291° |
| 2026-04-25 20:11 | 22.14449 | 48.32654 | 35908 ft | 436 kts | 291° |
| 2026-04-25 20:12 | 22.16638 | 48.26550 | 35907 ft | 436 kts | 291° |
| 2026-04-25 20:12 | 22.18102 | 48.22461 | 35927 ft | 437 kts | 291° |
| 2026-04-25 20:13 | 22.21010 | 48.14328 | 35909 ft | 436 kts | 291° |
| 2026-04-25 20:13 | 22.23189 | 48.08224 | 35907 ft | 436 kts | 291° |
| 2026-04-25 20:14 | 22.25373 | 48.02098 | 35908 ft | 436 kts | 291° |
| 2026-04-25 20:14 | 22.27478 | 47.96186 | 35914 ft | 436 kts | 291° |
| 2026-04-25 20:15 | 22.29652 | 47.90070 | 35918 ft | 436 kts | 291° |
| 2026-04-25 20:15 | 22.31827 | 47.83946 | 35925 ft | 436 kts | 291° |
| 2026-04-25 20:16 | 22.33999 | 47.77818 | 35917 ft | 436 kts | 290° |
| 2026-04-25 20:16 | 22.36154 | 47.71733 | 35922 ft | 436 kts | 290° |
| 2026-04-25 20:17 | 22.38318 | 47.65614 | 35920 ft | 436 kts | 290° |
| 2026-04-25 20:17 | 22.40486 | 47.59472 | 35922 ft | 436 kts | 290° |
| 2026-04-25 20:18 | 22.42649 | 47.53338 | 35925 ft | 436 kts | 290° |
| 2026-04-25 20:18 | 22.44811 | 47.47200 | 35927 ft | 437 kts | 290° |
| 2026-04-25 20:19 | 22.46958 | 47.41094 | 35929 ft | 437 kts | 290° |
| 2026-04-25 20:19 | 22.49112 | 47.34958 | 35931 ft | 436 kts | 290° |
| 2026-04-25 20:20 | 22.51264 | 47.28823 | 35933 ft | 436 kts | 290° |
| 2026-04-25 20:20 | 22.53418 | 47.22681 | 35938 ft | 436 kts | 290° |
| 2026-04-25 20:21 | 22.55564 | 47.16551 | 35942 ft | 436 kts | 290° |
| 2026-04-25 20:21 | 22.57710 | 47.10412 | 35956 ft | 435 kts | 290° |
| 2026-04-25 20:22 | 22.59141 | 47.06315 | 35950 ft | 435 kts | 290° |
| 2026-04-25 20:22 | 22.61916 | 46.98356 | 35954 ft | 434 kts | 290° |
| 2026-04-25 20:23 | 22.64043 | 46.92248 | 35960 ft | 434 kts | 290° |
| 2026-04-25 20:23 | 22.66167 | 46.86134 | 35951 ft | 433 kts | 290° |
| 2026-04-25 20:24 | 22.68287 | 46.80026 | 35978 ft | 433 kts | 290° |
| 2026-04-25 20:24 | 22.70404 | 46.73919 | 35958 ft | 433 kts | 290° |
| 2026-04-25 20:25 | 22.72523 | 46.67799 | 35978 ft | 433 kts | 290° |
| 2026-04-25 20:25 | 22.74635 | 46.61689 | 35981 ft | 433 kts | 290° |
| 2026-04-25 20:26 | 22.76733 | 46.55609 | 35972 ft | 433 kts | 290° |
| 2026-04-25 20:26 | 22.78836 | 46.49507 | 35981 ft | 433 kts | 290° |
| 2026-04-25 20:27 | 22.80929 | 46.43382 | 36003 ft | 433 kts | 288° |
| 2026-04-25 20:27 | 22.82357 | 46.37050 | 35996 ft | 433 kts | 280° |
| 2026-04-25 20:28 | 22.82994 | 46.30559 | 35983 ft | 433 kts | 276° |
| 2026-04-25 20:28 | 22.83447 | 46.24049 | 35986 ft | 433 kts | 275° |
| 2026-04-25 20:29 | 22.83905 | 46.17529 | 35979 ft | 433 kts | 276° |
| 2026-04-25 20:29 | 22.84371 | 46.11043 | 35972 ft | 434 kts | 276° |
| 2026-04-25 20:30 | 22.84844 | 46.04528 | 35965 ft | 434 kts | 276° |
| 2026-04-25 20:30 | 22.85304 | 45.98175 | 35956 ft | 434 kts | 276° |
| 2026-04-25 20:31 | 22.85773 | 45.91647 | 35973 ft | 434 kts | 275° |
| 2026-04-25 20:31 | 22.86238 | 45.85128 | 35954 ft | 434 kts | 275° |
| 2026-04-25 20:32 | 22.86699 | 45.78628 | 35956 ft | 433 kts | 275° |
| 2026-04-25 20:32 | 22.87081 | 45.73216 | 35955 ft | 433 kts | 275° |
| 2026-04-25 20:33 | 22.87538 | 45.66708 | 35961 ft | 433 kts | 275° |
| 2026-04-25 20:33 | 22.87915 | 45.61301 | 35961 ft | 433 kts | 275° |
| 2026-04-25 20:34 | 22.88443 | 45.53696 | 35962 ft | 433 kts | 275° |
| 2026-04-25 20:34 | 22.88893 | 45.47174 | 35967 ft | 433 kts | 275° |
| 2026-04-25 20:35 | 22.89340 | 45.40649 | 35967 ft | 433 kts | 275° |
| 2026-04-25 20:35 | 22.89782 | 45.34169 | 35974 ft | 434 kts | 275° |
| 2026-04-25 20:36 | 22.90225 | 45.27637 | 35963 ft | 434 kts | 275° |
| 2026-04-25 20:36 | 22.90664 | 45.21111 | 35967 ft | 433 kts | 275° |
| 2026-04-25 20:37 | 22.91101 | 45.14591 | 35962 ft | 433 kts | 275° |
| 2026-04-25 20:37 | 22.91534 | 45.08081 | 35968 ft | 433 kts | 275° |
| 2026-04-25 20:38 | 22.91963 | 45.01567 | 35968 ft | 433 kts | 275° |
| 2026-04-25 20:38 | 22.92378 | 44.95234 | 35964 ft | 433 kts | 275° |
| 2026-04-25 20:39 | 22.92803 | 44.88714 | 35966 ft | 433 kts | 275° |
| 2026-04-25 20:39 | 22.93152 | 44.83324 | 35971 ft | 433 kts | 275° |
| 2026-04-25 20:40 | 22.93644 | 44.75683 | 35968 ft | 434 kts | 275° |
| 2026-04-25 20:40 | 22.94161 | 44.69179 | 35970 ft | 434 kts | 279° |
| 2026-04-25 20:41 | 22.95470 | 44.62784 | 35966 ft | 435 kts | 287° |
| 2026-04-25 20:41 | 22.97395 | 44.56564 | 35972 ft | 435 kts | 287° |
| 2026-04-25 20:42 | 22.99343 | 44.50345 | 35964 ft | 435 kts | 287° |
| 2026-04-25 20:42 | 23.01259 | 44.44172 | 35964 ft | 435 kts | 287° |
| 2026-04-25 20:43 | 23.03177 | 44.37947 | 35969 ft | 435 kts | 287° |
| 2026-04-25 20:43 | 23.05091 | 44.31717 | 35966 ft | 435 kts | 287° |
| 2026-04-25 20:44 | 23.07002 | 44.25483 | 35965 ft | 434 kts | 287° |
| 2026-04-25 20:44 | 23.08911 | 44.19251 | 35970 ft | 434 kts | 287° |
| 2026-04-25 20:45 | 23.10800 | 44.13070 | 35970 ft | 434 kts | 287° |
| 2026-04-25 20:45 | 23.12704 | 44.06835 | 35971 ft | 433 kts | 287° |
| 2026-04-25 20:46 | 23.14600 | 44.00613 | 35985 ft | 433 kts | 287° |
| 2026-04-25 20:46 | 23.16431 | 43.94600 | 35974 ft | 432 kts | 287° |
| 2026-04-25 20:47 | 23.18316 | 43.88395 | 35976 ft | 431 kts | 287° |
| 2026-04-25 20:47 | 23.20195 | 43.82203 | 35994 ft | 430 kts | 287° |
| 2026-04-25 20:48 | 23.22065 | 43.76027 | 35986 ft | 430 kts | 287° |
| 2026-04-25 20:48 | 23.23936 | 43.69841 | 35994 ft | 429 kts | 287° |
| 2026-04-25 20:49 | 23.25790 | 43.63699 | 35997 ft | 429 kts | 287° |
| 2026-04-25 20:49 | 23.27652 | 43.57525 | 36002 ft | 430 kts | 286° |
| 2026-04-25 20:50 | 23.29511 | 43.51349 | 36003 ft | 430 kts | 286° |
| 2026-04-25 20:50 | 23.31374 | 43.45153 | 36010 ft | 431 kts | 286° |
| 2026-04-25 20:51 | 23.33236 | 43.38950 | 36020 ft | 431 kts | 286° |
| 2026-04-25 20:51 | 23.35086 | 43.32772 | 36024 ft | 432 kts | 286° |
| 2026-04-25 20:52 | 23.36633 | 43.27604 | 36028 ft | 432 kts | 286° |
| 2026-04-25 20:52 | 23.38810 | 43.20315 | 36042 ft | 432 kts | 286° |
| 2026-04-25 20:53 | 23.40651 | 43.14142 | 36038 ft | 431 kts | 286° |
| 2026-04-25 20:53 | 23.42509 | 43.07891 | 36044 ft | 431 kts | 286° |
| 2026-04-25 20:54 | 23.44339 | 43.01717 | 36064 ft | 430 kts | 286° |
| 2026-04-25 20:54 | 23.46125 | 42.95684 | 36055 ft | 430 kts | 286° |
| 2026-04-25 20:55 | 23.47956 | 42.89487 | 36054 ft | 429 kts | 286° |
| 2026-04-25 20:55 | 23.49771 | 42.83338 | 36057 ft | 428 kts | 286° |
| 2026-04-25 20:56 | 23.51596 | 42.77146 | 36059 ft | 428 kts | 286° |
| 2026-04-25 20:56 | 23.53416 | 42.70965 | 36060 ft | 428 kts | 286° |
| 2026-04-25 20:57 | 23.55238 | 42.64780 | 36061 ft | 428 kts | 286° |
| 2026-04-25 20:57 | 23.57043 | 42.58640 | 36065 ft | 428 kts | 285° |
| 2026-04-25 20:58 | 23.58857 | 42.52460 | 36063 ft | 428 kts | 285° |
| 2026-04-25 20:58 | 23.60671 | 42.46266 | 36064 ft | 428 kts | 285° |
| 2026-04-25 20:59 | 23.62483 | 42.40071 | 36068 ft | 428 kts | 285° |
| 2026-04-25 20:59 | 23.64291 | 42.33881 | 36059 ft | 428 kts | 285° |
| 2026-04-25 21:00 | 23.65488 | 42.29779 | 36061 ft | 428 kts | 285° |
| 2026-04-25 21:01 | 23.68784 | 42.18423 | 36067 ft | 428 kts | 285° |
| 2026-04-25 21:01 | 23.70577 | 42.12224 | 36056 ft | 428 kts | 285° |
| 2026-04-25 21:02 | 23.72368 | 42.06025 | 36052 ft | 428 kts | 285° |
| 2026-04-25 21:02 | 23.74128 | 41.99923 | 36047 ft | 427 kts | 285° |
| 2026-04-25 21:03 | 23.75885 | 41.93841 | 36050 ft | 427 kts | 285° |
| 2026-04-25 21:03 | 23.77672 | 41.87659 | 36049 ft | 427 kts | 285° |
| 2026-04-25 21:04 | 23.79453 | 41.81483 | 36046 ft | 426 kts | 285° |
| 2026-04-25 21:04 | 23.81232 | 41.75305 | 36048 ft | 426 kts | 285° |
| 2026-04-25 21:05 | 23.83007 | 41.69118 | 36045 ft | 426 kts | 284° |
| 2026-04-25 21:05 | 23.84764 | 41.62988 | 36043 ft | 426 kts | 284° |
| 2026-04-25 21:06 | 23.86534 | 41.56802 | 36042 ft | 426 kts | 284° |
| 2026-04-25 21:06 | 23.88300 | 41.50601 | 36039 ft | 427 kts | 284° |
| 2026-04-25 21:07 | 23.90057 | 41.44406 | 36039 ft | 427 kts | 284° |
| 2026-04-25 21:07 | 23.91815 | 41.38205 | 36031 ft | 427 kts | 284° |
| 2026-04-25 21:08 | 23.93564 | 41.32031 | 36032 ft | 427 kts | 284° |
| 2026-04-25 21:08 | 23.95325 | 41.25821 | 36027 ft | 428 kts | 284° |
| 2026-04-25 21:09 | 23.97959 | 41.16514 | 36024 ft | 428 kts | 284° |
| 2026-04-25 21:09 | 23.99717 | 41.10285 | 36020 ft | 429 kts | 284° |
| 2026-04-25 21:10 | 24.01473 | 41.04051 | 36028 ft | 430 kts | 284° |
| 2026-04-25 21:10 | 24.03189 | 40.97954 | 36026 ft | 430 kts | 284° |
| 2026-04-25 21:11 | 24.04951 | 40.91680 | 36022 ft | 431 kts | 284° |
| 2026-04-25 21:11 | 24.06701 | 40.85442 | 36026 ft | 430 kts | 284° |
| 2026-04-25 21:12 | 24.08452 | 40.79186 | 36017 ft | 430 kts | 284° |
| 2026-04-25 21:12 | 24.09623 | 40.74999 | 36017 ft | 429 kts | 284° |
| 2026-04-25 21:13 | 24.11939 | 40.66697 | 36019 ft | 428 kts | 284° |
| 2026-04-25 21:13 | 24.13672 | 40.60473 | 36007 ft | 427 kts | 284° |
| 2026-04-25 21:14 | 24.15400 | 40.54277 | 36011 ft | 427 kts | 285° |
| 2026-04-25 21:14 | 24.17677 | 40.48228 | 36005 ft | 432 kts | 293° |
| 2026-04-25 21:15 | 24.20496 | 40.42416 | 36017 ft | 432 kts | 293° |
| 2026-04-25 21:15 | 24.23307 | 40.36600 | 36000 ft | 431 kts | 292° |
| 2026-04-25 21:16 | 24.26081 | 40.30822 | 36001 ft | 430 kts | 292° |
| 2026-04-25 21:16 | 24.28863 | 40.25007 | 36012 ft | 430 kts | 292° |
| 2026-04-25 21:17 | 24.31623 | 40.19229 | 35989 ft | 429 kts | 292° |
| 2026-04-25 21:17 | 24.34393 | 40.13421 | 35992 ft | 428 kts | 292° |
| 2026-04-25 21:18 | 24.37155 | 40.07624 | 35996 ft | 428 kts | 292° |
| 2026-04-25 21:18 | 24.39894 | 40.01868 | 36006 ft | 428 kts | 292° |
| 2026-04-25 21:19 | 24.42574 | 39.96229 | 36007 ft | 428 kts | 292° |
| 2026-04-25 21:19 | 24.45330 | 39.90423 | 35993 ft | 428 kts | 292° |
| 2026-04-25 21:20 | 24.47151 | 39.86583 | 36005 ft | 428 kts | 292° |
| 2026-04-25 21:20 | 24.50818 | 39.78841 | 36000 ft | 429 kts | 292° |
| 2026-04-25 21:21 | 24.53275 | 39.74034 | 35989 ft | 435 kts | 298° |
| 2026-04-25 21:21 | 24.57204 | 39.68943 | 35995 ft | 444 kts | 307° |
| 2026-04-25 21:22 | 24.62021 | 39.64552 | 35999 ft | 453 kts | 315° |
| 2026-04-25 21:22 | 24.67169 | 39.60523 | 35989 ft | 453 kts | 316° |
| 2026-04-25 21:23 | 24.72299 | 39.56504 | 35988 ft | 452 kts | 315° |
| 2026-04-25 21:23 | 24.77384 | 39.52460 | 35985 ft | 451 kts | 315° |
| 2026-04-25 21:24 | 24.82421 | 39.48427 | 35976 ft | 451 kts | 315° |
| 2026-04-25 21:24 | 24.87492 | 39.44358 | 35998 ft | 451 kts | 315° |
| 2026-04-25 21:25 | 24.92567 | 39.40284 | 35987 ft | 451 kts | 315° |
| 2026-04-25 21:25 | 24.97641 | 39.36208 | 35981 ft | 450 kts | 315° |
| 2026-04-25 21:26 | 25.02659 | 39.32174 | 35996 ft | 450 kts | 315° |
| 2026-04-25 21:26 | 25.07713 | 39.28106 | 35982 ft | 450 kts | 315° |
| 2026-04-25 21:27 | 25.12776 | 39.24026 | 35981 ft | 449 kts | 315° |
| 2026-04-25 21:27 | 25.17823 | 39.19949 | 35976 ft | 447 kts | 313° |
| 2026-04-25 21:28 | 25.22249 | 39.15350 | 35991 ft | 433 kts | 303° |
| 2026-04-25 21:28 | 25.25948 | 39.10168 | 35968 ft | 424 kts | 296° |
| 2026-04-25 21:29 | 25.29130 | 39.04729 | 35967 ft | 424 kts | 295° |
| 2026-04-25 21:29 | 25.32203 | 38.99402 | 35957 ft | 423 kts | 295° |
| 2026-04-25 21:30 | 25.35391 | 38.93912 | 35986 ft | 424 kts | 295° |
| 2026-04-25 21:30 | 25.38045 | 38.89357 | 35969 ft | 425 kts | 295° |
| 2026-04-25 21:31 | 25.41801 | 38.82914 | 35947 ft | 426 kts | 295° |
| 2026-04-25 21:31 | 25.45002 | 38.77417 | 35943 ft | 426 kts | 295° |
| 2026-04-25 21:32 | 25.48192 | 38.71933 | 35943 ft | 425 kts | 295° |
| 2026-04-25 21:32 | 25.51396 | 38.66420 | 35940 ft | 425 kts | 295° |
| 2026-04-25 21:33 | 25.54593 | 38.60910 | 35938 ft | 425 kts | 295° |
| 2026-04-25 21:33 | 25.57783 | 38.55406 | 35927 ft | 424 kts | 295° |
| 2026-04-25 21:34 | 25.60968 | 38.49904 | 35934 ft | 423 kts | 295° |
| 2026-04-25 21:34 | 25.64123 | 38.44448 | 35929 ft | 423 kts | 295° |
| 2026-04-25 21:35 | 25.67296 | 38.38954 | 35930 ft | 422 kts | 295° |
| 2026-04-25 21:35 | 25.70459 | 38.33471 | 35932 ft | 421 kts | 295° |
| 2026-04-25 21:36 | 25.73595 | 38.28027 | 35928 ft | 421 kts | 295° |
| 2026-04-25 21:36 | 25.76747 | 38.22550 | 35922 ft | 420 kts | 295° |
| 2026-04-25 21:37 | 25.79354 | 38.18013 | 35939 ft | 419 kts | 294° |
| 2026-04-25 21:37 | 25.83024 | 38.11622 | 35922 ft | 420 kts | 294° |
| 2026-04-25 21:38 | 25.86166 | 38.06142 | 35932 ft | 421 kts | 294° |
| 2026-04-25 21:38 | 25.89295 | 38.00675 | 35933 ft | 422 kts | 294° |
| 2026-04-25 21:39 | 25.92368 | 37.95304 | 35972 ft | 422 kts | 294° |
| 2026-04-25 21:39 | 25.95516 | 37.89800 | 35956 ft | 420 kts | 294° |
| 2026-04-25 21:40 | 25.98464 | 37.84277 | 35947 ft | 412 kts | 287° |
| 2026-04-25 21:40 | 26.00476 | 37.78404 | 35953 ft | 405 kts | 282° |
| 2026-04-25 21:41 | 26.01736 | 37.72347 | 35965 ft | 400 kts | 275° |
| 2026-04-25 21:41 | 26.02534 | 37.66213 | 35981 ft | 402 kts | 274° |
| 2026-04-25 21:42 | 26.03341 | 37.60065 | 35956 ft | 403 kts | 274° |
| 2026-04-25 21:42 | 26.04176 | 37.53886 | 35951 ft | 403 kts | 275° |
| 2026-04-25 21:43 | 26.05001 | 37.47770 | 35945 ft | 402 kts | 274° |
| 2026-04-25 21:43 | 26.05827 | 37.41614 | 35943 ft | 403 kts | 274° |
| 2026-04-25 21:44 | 26.06650 | 37.35439 | 35936 ft | 403 kts | 274° |
| 2026-04-25 21:45 | 26.07880 | 37.26196 | 35920 ft | 403 kts | 274° |
| 2026-04-25 21:45 | 26.08696 | 37.20031 | 35922 ft | 402 kts | 274° |
| 2026-04-25 21:46 | 26.09505 | 37.13919 | 35913 ft | 402 kts | 274° |
| 2026-04-25 21:46 | 26.10314 | 37.07772 | 35913 ft | 401 kts | 274° |
| 2026-04-25 21:47 | 26.11119 | 37.01625 | 35909 ft | 401 kts | 274° |
| 2026-04-25 21:47 | 26.11903 | 36.95629 | 35908 ft | 401 kts | 274° |
| 2026-04-25 21:48 | 26.12700 | 36.89512 | 35858 ft | 401 kts | 274° |
| 2026-04-25 21:48 | 26.13498 | 36.83363 | 35879 ft | 402 kts | 274° |
| 2026-04-25 21:49 | 26.14296 | 36.77189 | 35890 ft | 403 kts | 274° |
| 2026-04-25 21:49 | 26.15096 | 36.70993 | 35896 ft | 404 kts | 274° |
| 2026-04-25 21:50 | 26.15892 | 36.64798 | 35880 ft | 404 kts | 274° |
| 2026-04-25 21:50 | 26.16686 | 36.58606 | 35881 ft | 404 kts | 274° |
| 2026-04-25 21:51 | 26.17786 | 36.52519 | 35883 ft | 410 kts | 284° |
| 2026-04-25 21:51 | 26.20325 | 36.46728 | 35881 ft | 416 kts | 292° |
| 2026-04-25 21:52 | 26.23946 | 36.41665 | 35894 ft | 427 kts | 303° |
| 2026-04-25 21:52 | 26.28136 | 36.36939 | 35886 ft | 429 kts | 304° |
| 2026-04-25 21:53 | 26.32330 | 36.32202 | 35892 ft | 429 kts | 304° |
| 2026-04-25 21:53 | 26.36496 | 36.27427 | 35888 ft | 429 kts | 303° |
| 2026-04-25 21:54 | 26.40621 | 36.22664 | 35890 ft | 429 kts | 303° |
| 2026-04-25 21:54 | 26.44777 | 36.17854 | 35887 ft | 430 kts | 303° |
| 2026-04-25 21:55 | 26.48930 | 36.13044 | 35887 ft | 430 kts | 303° |
| 2026-04-25 21:55 | 26.53091 | 36.08221 | 35888 ft | 431 kts | 303° |
| 2026-04-25 21:56 | 26.57244 | 36.03401 | 35887 ft | 431 kts | 303° |
| 2026-04-25 21:56 | 26.61265 | 35.98730 | 35890 ft | 431 kts | 303° |
| 2026-04-25 21:57 | 26.65423 | 35.93894 | 35892 ft | 431 kts | 303° |
| 2026-04-25 21:57 | 26.69575 | 35.89058 | 35902 ft | 431 kts | 303° |
| 2026-04-25 21:58 | 26.73737 | 35.84206 | 35900 ft | 431 kts | 303° |
| 2026-04-25 21:58 | 26.77887 | 35.79364 | 35898 ft | 431 kts | 303° |
| 2026-04-25 21:59 | 26.82012 | 35.74545 | 35912 ft | 430 kts | 303° |
| 2026-04-25 21:59 | 26.86158 | 35.69700 | 35904 ft | 430 kts | 303° |
| 2026-04-25 22:00 | 26.92366 | 35.62429 | 35907 ft | 430 kts | 303° |
| 2026-04-25 22:00 | 26.96502 | 35.57579 | 35905 ft | 430 kts | 303° |
| 2026-04-25 22:01 | 27.00609 | 35.52756 | 35904 ft | 429 kts | 303° |
| 2026-04-25 22:01 | 27.04039 | 35.48724 | 35956 ft | 430 kts | 303° |
| 2026-04-25 22:02 | 27.08846 | 35.43067 | 35910 ft | 430 kts | 303° |
| 2026-04-25 22:02 | 27.12975 | 35.38202 | 35903 ft | 430 kts | 303° |
| 2026-04-25 22:03 | 27.17093 | 35.33346 | 35907 ft | 429 kts | 303° |
| 2026-04-25 22:03 | 27.21211 | 35.28483 | 35906 ft | 429 kts | 303° |
| 2026-04-25 22:04 | 27.25316 | 35.23630 | 35908 ft | 429 kts | 303° |
| 2026-04-25 22:04 | 27.29426 | 35.18764 | 35906 ft | 429 kts | 303° |
| 2026-04-25 22:05 | 27.33530 | 35.13900 | 35903 ft | 429 kts | 303° |
| 2026-04-25 22:05 | 27.37613 | 35.09057 | 35905 ft | 429 kts | 303° |
| 2026-04-25 22:06 | 27.41720 | 35.04178 | 35935 ft | 429 kts | 303° |
| 2026-04-25 22:06 | 27.45713 | 34.99429 | 35911 ft | 429 kts | 303° |
| 2026-04-25 22:07 | 27.49127 | 34.95366 | 35911 ft | 429 kts | 303° |
| 2026-04-25 22:07 | 27.54055 | 34.89808 | 35901 ft | 433 kts | 306° |
| 2026-04-25 22:08 | 27.58474 | 34.85174 | 35905 ft | 433 kts | 306° |
| 2026-04-25 22:08 | 27.62892 | 34.80542 | 35895 ft | 433 kts | 306° |
| 2026-04-25 22:09 | 27.67287 | 34.75904 | 35899 ft | 432 kts | 306° |
| 2026-04-25 22:09 | 27.70931 | 34.72046 | 35916 ft | 432 kts | 306° |
| 2026-04-25 22:10 | 27.76027 | 34.66641 | 35904 ft | 432 kts | 306° |
| 2026-04-25 22:10 | 27.79679 | 34.62763 | 35906 ft | 433 kts | 306° |
| 2026-04-25 22:11 | 27.84066 | 34.58102 | 35906 ft | 433 kts | 306° |
| 2026-04-25 22:11 | 27.88461 | 34.53427 | 35907 ft | 433 kts | 306° |
| 2026-04-25 22:12 | 27.92821 | 34.48782 | 35912 ft | 433 kts | 306° |
| 2026-04-25 22:12 | 27.96499 | 34.44861 | 35922 ft | 434 kts | 306° |
| 2026-04-25 22:13 | 28.01375 | 34.39248 | 35912 ft | 424 kts | 299° |
| 2026-04-25 22:13 | 28.05093 | 34.34076 | 35922 ft | 424 kts | 299° |
| 2026-04-25 22:14 | 28.08822 | 34.28886 | 35926 ft | 425 kts | 299° |
| 2026-04-25 22:14 | 28.12565 | 34.23692 | 35924 ft | 426 kts | 299° |
| 2026-04-25 22:15 | 28.16330 | 34.18469 | 35950 ft | 428 kts | 299° |
| 2026-04-25 22:16 | 28.21957 | 34.10662 | 35971 ft | 427 kts | 300° |
| 2026-04-25 22:16 | 28.25721 | 34.05427 | 35949 ft | 428 kts | 299° |
| 2026-04-25 22:17 | 28.29469 | 34.00209 | 35953 ft | 425 kts | 299° |
| 2026-04-25 22:17 | 28.33104 | 33.95142 | 35995 ft | 424 kts | 300° |
| 2026-04-25 22:18 | 28.36848 | 33.89910 | 35959 ft | 429 kts | 300° |
| 2026-04-25 22:18 | 28.40620 | 33.84643 | 35961 ft | 431 kts | 300° |
| 2026-04-25 22:19 | 28.44380 | 33.79381 | 35943 ft | 430 kts | 300° |
| 2026-04-25 22:19 | 28.48148 | 33.74104 | 35946 ft | 430 kts | 300° |
| 2026-04-25 22:20 | 28.51922 | 33.68809 | 35946 ft | 428 kts | 300° |
| 2026-04-25 22:20 | 28.55673 | 33.63548 | 36011 ft | 429 kts | 300° |
| 2026-04-25 22:21 | 28.59428 | 33.58261 | 35943 ft | 429 kts | 300° |
| 2026-04-25 22:21 | 28.63151 | 33.53008 | 35937 ft | 427 kts | 300° |
| 2026-04-25 22:22 | 28.66885 | 33.47761 | 35931 ft | 426 kts | 300° |
| 2026-04-25 22:22 | 28.70600 | 33.42520 | 35921 ft | 425 kts | 300° |
| 2026-04-25 22:23 | 28.74313 | 33.37272 | 35922 ft | 425 kts | 299° |
| 2026-04-25 22:23 | 28.78031 | 33.32008 | 35911 ft | 426 kts | 300° |
| 2026-04-25 22:24 | 28.81753 | 33.26732 | 35918 ft | 428 kts | 300° |
| 2026-04-25 22:24 | 28.85465 | 33.21466 | 35908 ft | 429 kts | 300° |
| 2026-04-25 22:25 | 28.89208 | 33.16151 | 35904 ft | 430 kts | 300° |
| 2026-04-25 22:25 | 28.92950 | 33.10830 | 35901 ft | 431 kts | 300° |
| 2026-04-25 22:26 | 28.96703 | 33.05487 | 35898 ft | 431 kts | 300° |
| 2026-04-25 22:26 | 29.00457 | 33.00136 | 35896 ft | 431 kts | 299° |
| 2026-04-25 22:27 | 29.04110 | 32.94921 | 35893 ft | 431 kts | 299° |
| 2026-04-25 22:27 | 29.07825 | 32.89611 | 35887 ft | 430 kts | 299° |
| 2026-04-25 22:28 | 29.11571 | 32.84250 | 35896 ft | 430 kts | 299° |
| 2026-04-25 22:28 | 29.15302 | 32.78901 | 35883 ft | 430 kts | 299° |
| 2026-04-25 22:29 | 29.19039 | 32.73539 | 35885 ft | 430 kts | 299° |
| 2026-04-25 22:29 | 29.22710 | 32.68274 | 35548 ft | 418 kts | 299° |
| 2026-04-25 22:30 | 29.26327 | 32.63060 | 34196 ft | 419 kts | 300° |
| 2026-04-25 22:30 | 29.28131 | 32.60456 | 33346 ft | 423 kts | 300° |
| 2026-04-25 22:30 | 29.29970 | 32.57794 | 32419 ft | 427 kts | 301° |
| 2026-04-25 22:30 | 29.31188 | 32.56021 | 31814 ft | 430 kts | 301° |
| 2026-04-25 22:31 | 29.33695 | 32.52363 | 30726 ft | 441 kts | 303° |
| 2026-04-25 22:31 | 29.35613 | 32.49561 | 30023 ft | 451 kts | 303° |
| 2026-04-25 22:31 | 29.37557 | 32.46730 | 29212 ft | 451 kts | 303° |
| 2026-04-25 22:31 | 29.39491 | 32.43913 | 28449 ft | 447 kts | 303° |
| 2026-04-25 22:32 | 29.41405 | 32.41126 | 27735 ft | 442 kts | 303° |
| 2026-04-25 22:32 | 29.43275 | 32.38399 | 27058 ft | 438 kts | 303° |
| 2026-04-25 22:32 | 29.45152 | 32.35659 | 26381 ft | 434 kts | 303° |
| 2026-04-25 22:32 | 29.47009 | 32.32944 | 25727 ft | 431 kts | 303° |
| 2026-04-25 22:33 | 29.48855 | 32.30242 | 25058 ft | 428 kts | 303° |
| 2026-04-25 22:33 | 29.50680 | 32.27569 | 24400 ft | 419 kts | 303° |
| 2026-04-25 22:33 | 29.52438 | 32.25002 | 23750 ft | 397 kts | 303° |
| 2026-04-25 22:33 | 29.54128 | 32.22528 | 23114 ft | 393 kts | 304° |
| 2026-04-25 22:34 | 29.55812 | 32.20049 | 22462 ft | 395 kts | 303° |
| 2026-04-25 22:34 | 29.57514 | 32.17541 | 21837 ft | 400 kts | 303° |
| 2026-04-25 22:34 | 29.59235 | 32.15006 | 21222 ft | 404 kts | 303° |
| 2026-04-25 22:34 | 29.60961 | 32.12466 | 20593 ft | 402 kts | 303° |
| 2026-04-25 22:35 | 29.62678 | 32.09941 | 19973 ft | 399 kts | 303° |
| 2026-04-25 22:35 | 29.64383 | 32.07434 | 19373 ft | 396 kts | 303° |
| 2026-04-25 22:35 | 29.66078 | 32.04940 | 18790 ft | 394 kts | 303° |
| 2026-04-25 22:35 | 29.67759 | 32.02462 | 18178 ft | 392 kts | 303° |
| 2026-04-25 22:36 | 29.69408 | 32.00030 | 17511 ft | 389 kts | 303° |
| 2026-04-25 22:36 | 29.70983 | 31.97705 | 16933 ft | 386 kts | 303° |
| 2026-04-25 22:36 | 29.72627 | 31.95277 | 16353 ft | 382 kts | 303° |
| 2026-04-25 22:36 | 29.74255 | 31.92871 | 15789 ft | 379 kts | 303° |
| 2026-04-25 22:37 | 29.75870 | 31.90484 | 15229 ft | 376 kts | 303° |
| 2026-04-25 22:37 | 29.77471 | 31.88116 | 14676 ft | 373 kts | 303° |
| 2026-04-25 22:37 | 29.79053 | 31.85759 | 14124 ft | 371 kts | 303° |
| 2026-04-25 22:37 | 29.80599 | 31.83390 | 13551 ft | 368 kts | 303° |
| 2026-04-25 22:38 | 29.82120 | 31.81031 | 12971 ft | 366 kts | 303° |
| 2026-04-25 22:38 | 29.83636 | 31.78672 | 12394 ft | 364 kts | 302° |
| 2026-04-25 22:38 | 29.85138 | 31.76335 | 11832 ft | 362 kts | 303° |
| 2026-04-25 22:38 | 29.86640 | 31.74002 | 11289 ft | 361 kts | 303° |
| 2026-04-25 22:39 | 29.88130 | 31.71690 | 10917 ft | 354 kts | 303° |
| 2026-04-25 22:39 | 29.89576 | 31.69451 | 10762 ft | 342 kts | 303° |
| 2026-04-25 22:39 | 29.90955 | 31.67316 | 10613 ft | 331 kts | 303° |
| 2026-04-25 22:39 | 29.92304 | 31.65225 | 10465 ft | 320 kts | 302° |
| 2026-04-25 22:40 | 29.93606 | 31.63204 | 10335 ft | 306 kts | 302° |
| 2026-04-25 22:40 | 29.94822 | 31.61322 | 10175 ft | 278 kts | 302° |
| 2026-04-25 22:40 | 29.95935 | 31.59596 | 10068 ft | 260 kts | 302° |
| 2026-04-25 22:40 | 29.96987 | 31.57958 | 9975 ft | 254 kts | 302° |
| 2026-04-25 22:41 | 29.98071 | 31.56257 | 9866 ft | 272 kts | 302° |
| 2026-04-25 22:41 | 29.99227 | 31.54445 | 9501 ft | 285 kts | 302° |
| 2026-04-25 22:41 | 30.00410 | 31.52598 | 9135 ft | 288 kts | 303° |
| 2026-04-25 22:41 | 30.01586 | 31.50771 | 8783 ft | 283 kts | 302° |
| 2026-04-25 22:42 | 30.02735 | 31.48985 | 8411 ft | 271 kts | 302° |
| 2026-04-25 22:42 | 30.03834 | 31.47275 | 8076 ft | 259 kts | 302° |
| 2026-04-25 22:42 | 30.04896 | 31.45619 | 7788 ft | 259 kts | 302° |
| 2026-04-25 22:42 | 30.05988 | 31.43908 | 7498 ft | 270 kts | 302° |
| 2026-04-25 22:43 | 30.07115 | 31.42146 | 7159 ft | 274 kts | 302° |
| 2026-04-25 22:43 | 30.08253 | 31.40369 | 6807 ft | 275 kts | 302° |
| 2026-04-25 22:43 | 30.09391 | 31.38594 | 6476 ft | 275 kts | 303° |
| 2026-04-25 22:43 | 30.10517 | 31.36844 | 6365 ft | 265 kts | 303° |
| 2026-04-25 22:44 | 30.11606 | 31.35159 | 6362 ft | 260 kts | 303° |
| 2026-04-25 22:44 | 30.12716 | 31.33550 | 6229 ft | 254 kts | 314° |
| 2026-04-25 22:44 | 30.14223 | 31.32584 | 6004 ft | 252 kts | 346° |
| 2026-04-25 22:44 | 30.15967 | 31.32592 | 5624 ft | 254 kts | 15° |
| 2026-04-25 22:45 | 30.17499 | 31.33581 | 5250 ft | 254 kts | 41° |
| 2026-04-25 22:45 | 30.18755 | 31.35020 | 4913 ft | 253 kts | 46° |
| 2026-04-25 22:45 | 30.19943 | 31.36516 | 4686 ft | 248 kts | 47° |
| 2026-04-25 22:45 | 30.21093 | 31.38005 | 4326 ft | 250 kts | 48° |
| 2026-04-25 22:46 | 30.22220 | 31.39499 | 4154 ft | 242 kts | 48° |
| 2026-04-25 22:46 | 30.23329 | 31.40983 | 3727 ft | 247 kts | 46° |
| 2026-04-25 22:46 | 30.24438 | 31.42496 | 3446 ft | 244 kts | 48° |
| 2026-04-25 22:46 | 30.25502 | 31.43967 | 3180 ft | 242 kts | 47° |
| 2026-04-25 22:47 | 30.26376 | 31.45582 | 2933 ft | 232 kts | 68° |
| 2026-04-25 22:47 | 30.27026 | 31.47129 | 3072 ft | 199 kts | 50° |
| 2026-04-25 22:47 | 30.28129 | 31.48247 | 3377 ft | 216 kts | 29° |
| 2026-04-25 22:47 | 30.29394 | 31.49187 | 3471 ft | 218 kts | 34° |
| 2026-04-25 22:48 | 30.30416 | 31.50570 | 3365 ft | 235 kts | 53° |
| 2026-04-25 22:48 | 30.31386 | 31.52103 | 3245 ft | 235 kts | 49° |
| 2026-04-25 22:48 | 30.32376 | 31.53608 | 3030 ft | 237 kts | 49° |
| 2026-04-25 22:48 | 30.33350 | 31.55099 | 2856 ft | 228 kts | 48° |
| 2026-04-25 22:49 | 30.34269 | 31.56678 | 2664 ft | 250 kts | 66° |
| 2026-04-25 22:49 | 30.34554 | 31.58704 | 2213 ft | 267 kts | 96° |
| 2026-04-25 22:49 | 30.33907 | 31.60584 | 2077 ft | 244 kts | 130° |
| 2026-04-25 22:49 | 30.32598 | 31.61940 | 2105 ft | 268 kts | 147° |
| 2026-04-25 22:50 | 30.30895 | 31.62977 | 3188 ft | 273 kts | 158° |
| 2026-04-25 22:50 | 30.29152 | 31.63907 | 4048 ft | 279 kts | 150° |
| 2026-04-25 22:50 | 30.27807 | 31.65582 | 3964 ft | 298 kts | 121° |
| 2026-04-25 22:50 | 30.27114 | 31.67937 | 2967 ft | 322 kts | 95° |
| 2026-04-25 22:51 | 30.26935 | 31.70276 | 3720 ft | 260 kts | 96° |
| 2026-04-25 22:51 | 30.26757 | 31.72311 | 3731 ft | 256 kts | 96° |
| 2026-04-25 22:51 | 30.26557 | 31.74359 | 3375 ft | 260 kts | 95° |
| 2026-04-25 22:51 | 30.26481 | 31.76385 | 3328 ft | 244 kts | 77° |
| 2026-04-25 22:52 | 30.27265 | 31.78004 | 3349 ft | 228 kts | 32° |
| 2026-04-25 22:52 | 30.28634 | 31.78890 | 3338 ft | 218 kts | 19° |
| 2026-04-25 22:52 | 30.29976 | 31.79438 | 4124 ft | 212 kts | 16° |
| 2026-04-25 22:52 | 30.30976 | 31.79798 | 4717 ft | 233 kts | 15° |
| 2026-04-25 22:53 | 30.33121 | 31.80422 | 4905 ft | 243 kts | 359° |
| 2026-04-25 22:53 | 30.34697 | 31.79882 | 4614 ft | 239 kts | 321° |
| 2026-04-25 22:53 | 30.35713 | 31.78427 | 4195 ft | 232 kts | 289° |
| 2026-04-25 22:53 | 30.35862 | 31.76662 | 3726 ft | 217 kts | 258° |
| 2026-04-25 22:54 | 30.35141 | 31.75160 | 3053 ft | 221 kts | 227° |
| 2026-04-25 22:54 | 30.33956 | 31.73987 | 2537 ft | 225 kts | 223° |
| 2026-04-25 22:54 | 30.32831 | 31.72743 | 2224 ft | 222 kts | 229° |
| 2026-04-25 22:54 | 30.31802 | 31.71457 | 2096 ft | 216 kts | 230° |
| 2026-04-25 22:55 | 30.30789 | 31.70129 | 2108 ft | 225 kts | 231° |
| 2026-04-25 22:55 | 30.30106 | 31.69220 | 2093 ft | 222 kts | 232° |
| 2026-04-25 22:55 | 30.29112 | 31.67893 | 2070 ft | 214 kts | 234° |
| 2026-04-25 22:55 | 30.27855 | 31.66206 | 2072 ft | 203 kts | 232° |
| 2026-04-25 22:56 | 30.26946 | 31.64988 | 2090 ft | 195 kts | 233° |
| 2026-04-25 22:56 | 30.26362 | 31.64204 | 2087 ft | 186 kts | 233° |
| 2026-04-25 22:56 | 30.25507 | 31.63054 | 2089 ft | 188 kts | 233° |
| 2026-04-25 22:56 | 30.24684 | 31.61952 | 2083 ft | 177 kts | 234° |
| 2026-04-25 22:57 | 30.23882 | 31.60876 | 2107 ft | 173 kts | 234° |
| 2026-04-25 22:57 | 30.23099 | 31.59825 | 2111 ft | 176 kts | 234° |
| 2026-04-25 22:57 | 30.22294 | 31.58745 | 2095 ft | 176 kts | 234° |
| 2026-04-25 22:57 | 30.21498 | 31.57678 | 2095 ft | 174 kts | 234° |
| 2026-04-25 22:58 | 30.20713 | 31.56625 | 2094 ft | 173 kts | 234° |
| 2026-04-25 22:58 | 30.19954 | 31.55610 | 2081 ft | 161 kts | 233° |
| 2026-04-25 22:58 | 30.19242 | 31.54657 | 2087 ft | 153 kts | 234° |
| 2026-04-25 22:58 | 30.18547 | 31.53725 | 2097 ft | 154 kts | 234° |
| 2026-04-25 22:59 | 30.17846 | 31.52782 | 2097 ft | 154 kts | 233° |
| 2026-04-25 22:59 | 30.17151 | 31.51855 | 2037 ft | 155 kts | 234° |
| 2026-04-25 22:59 | 30.16407 | 31.50942 | 1855 ft | 156 kts | 235° |
| 2026-04-25 22:59 | 30.15698 | 31.50003 | 1638 ft | 157 kts | 237° |
| 2026-04-25 23:00 | 30.15021 | 31.49051 | 1429 ft | 151 kts | 234° |
| 2026-04-25 23:00 | 30.14347 | 31.48157 | 1243 ft | 146 kts | 236° |
| 2026-04-25 23:00 | 30.13681 | 31.47253 | 1026 ft | 147 kts | 236° |
| 2026-04-25 23:00 | 30.13028 | 31.46353 | 830 ft | 148 kts | 234° |
| 2026-04-25 23:01 | 30.12377 | 31.45471 | 656 ft | 144 kts | 235° |
| 2026-04-25 23:01 | 30.11724 | 31.44580 | 476 ft | 142 kts | 234° |
| 2026-04-25 23:01 | 30.11151 | 31.43798 | 467 ft | 108 kts | 226° |
| 2026-04-25 23:01 | 30.10774 | 31.43314 | 468 ft | 54 kts | 228° |
| 2026-04-25 23:02 | 30.10622 | 31.43111 | 466 ft | 30 kts | 237° |
| 2026-04-25 23:02 | 30.10530 | 31.42906 | 465 ft | 13 kts | 247° |
| 2026-04-25 23:02 | 30.10499 | 31.42801 | 464 ft | 17 kts | 254° |
| 2026-04-25 23:02 | 30.10438 | 31.42580 | 460 ft | 36 kts | 239° |
| 2026-04-25 23:03 | 30.10281 | 31.42362 | 460 ft | 35 kts | 228° |
| 2026-04-25 23:03 | 30.10084 | 31.42095 | 460 ft | 48 kts | 230° |
| 2026-04-25 23:03 | 30.09998 | 31.41833 | 456 ft | 32 kts | 236° |
| 2026-04-25 23:03 | 30.09912 | 31.41591 | 452 ft | 40 kts | 260° |
| 2026-04-25 23:04 | 30.09854 | 31.41232 | 430 ft | 46 kts | 259° |
| 2026-04-25 23:04 | 30.09793 | 31.40874 | 431 ft | 45 kts | 259° |
| 2026-04-25 23:04 | 30.09877 | 31.40662 | 413 ft | 28 kts | 322° |
| 2026-04-25 23:04 | 30.10066 | 31.40484 | 405 ft | 47 kts | 320° |
| 2026-04-25 23:05 | 30.10338 | 31.40207 | 391 ft | 48 kts | 318° |
| 2026-04-25 23:05 | 30.10483 | 31.40134 | 378 ft | 12 kts | 28° |
| 2026-04-25 23:05 | 30.10602 | 31.40278 | 377 ft | 38 kts | 46° |
| 2026-04-25 23:05 | 30.10710 | 31.40296 | 374 ft | 4 kts | 310° |
| 2026-04-25 23:06 | 30.10699 | 31.40242 | 373 ft | 16 kts | 228° |
| 2026-04-25 23:06 | 30.10623 | 31.40138 | 373 ft | 17 kts | 228° |
| 2026-04-25 23:06 | 30.10539 | 31.40030 | 374 ft | 22 kts | 228° |
| 2026-04-25 23:06 | 30.10493 | 31.39915 | 374 ft | 13 kts | 283° |
| 2026-04-25 23:07 | 30.10584 | 31.39857 | 364 ft | 19 kts | 28° |
| 2026-04-25 23:07 | 30.10683 | 31.39979 | 369 ft | 27 kts | 51° |
| 2026-04-25 23:07 | 30.10788 | 31.40114 | 368 ft | 11 kts | 31° |
| 2026-04-25 23:07 | 30.10837 | 31.40105 | 364 ft | 5 kts | 311° |
| 2026-04-25 23:08 | 30.10835 | 31.40061 | 361 ft | 6 kts | 253° |
| 2026-04-25 23:08 | 30.10822 | 31.40009 | 363 ft | 0 kts | 255° |